Pikeville, TN

5:25 PM CDT on October 31, 2014 (GMT -0500)
Winchester Municipal | Change Station
CLOSE
Current Station
Airport
Location: Winchester,
Elevation: 978 ft
Nearby Weather Stations
Active Advisory: Freeze Watch

Elev 978 ft 35.18 °N, 86.07 °W | Updated 10 minutes ago

Overcast
Overcast
41 °F
Feels Like 32 °F
N
17
Wind Variable Wind from NNW

Today
High -- | Low -- °F
--% Chance of Precip.
Yesterday
High -- | Low -- °F
Precip. -- in
7:01 AM 5:46 PM
First Quarter, 59% visible
Pressure 30.04 in
Visibility 9.0 miles
Clouds Scattered Clouds 1000 ft
Mostly Cloudy 1500 ft
Overcast 3300 ft
Windchill 32 °F
Dew Point 37 °F
Humidity 87%
Rainfall 0.00 in
Snow Depth Not available.
UV 0 out of 12
Pollen .90 out of 12
Air Quality Not available.
Flu Activity Not available.
METAR KBGF 312215Z AUTO 33015KT 9SM SCT010 BKN015 OVC033 05/03 A3004 RMK

More Conditions Fewer Conditions

Pressure 30.04 in
Visibility 9.0 miles
Clouds Scattered Clouds 1000 ft
Mostly Cloudy 1500 ft
Overcast 3300 ft
Windchill 32 °F
Dew Point 37 °F
Humidity 87%
Rainfall 0.00 in
Snow Depth Not available.
UV 0 out of 12
Pollen .90 out of 12
Air Quality Not available.
Flu Activity Not available.
METAR KBGF 312215Z AUTO 33015KT 9SM SCT010 BKN015 OVC033 05/03 A3004 RMK

More Conditions Fewer Conditions

10-Day Weather Forecast

Almanac

Astronomy

Oct. 31, 2014 Rise Set
Actual Time
Civil Twilight
Nautical Twilight
Astronomical Twilight
Moon
Length of Visible Light
Length of Day
Tomorrow will be .
, % of the Moon is Illuminated

Today's Extremes

State Highs State Lows

Community

WunderPhotos

Upload Photos

1,766,757 photos uploaded!

WunderBlogs® & News

Nearby

Air Quality

  Air Quality AQ Index Pollutant
Not available.

Snow Depth

Station Depth Elevation

Earthquake Activity

City Distance Mag. Time & Date
Minimum magnitude displayed is 2.5.

Coastal Water Temperatures

Place Temperature

Nearby Weather Stations